sensor_id;sensor_type;location;lat;lon;timestamp;P1;durP1;ratioP1;P2;durP2;ratioP2
10667;SDS011;5382;42.136;24.796;2023-07-24T00:01:57;9.63;;;6.43;;
10667;SDS011;5382;42.136;24.796;2023-07-24T00:04:24;7.80;;;5.75;;
10667;SDS011;5382;42.136;24.796;2023-07-24T00:06:51;10.13;;;6.90;;
10667;SDS011;5382;42.136;24.796;2023-07-24T00:09:18;10.77;;;6.88;;
10667;SDS011;5382;42.136;24.796;2023-07-24T00:11:44;11.30;;;5.85;;
10667;SDS011;5382;42.136;24.796;2023-07-24T00:14:11;12.50;;;6.07;;
10667;SDS011;5382;42.136;24.796;2023-07-24T00:16:39;8.63;;;6.00;;
10667;SDS011;5382;42.136;24.796;2023-07-24T00:19:06;9.18;;;6.93;;
10667;SDS011;5382;42.136;24.796;2023-07-24T00:21:33;8.80;;;6.82;;
10667;SDS011;5382;42.136;24.796;2023-07-24T00:24:00;9.15;;;6.38;;
10667;SDS011;5382;42.136;24.796;2023-07-24T00:26:27;8.50;;;6.13;;
10667;SDS011;5382;42.136;24.796;2023-07-24T00:28:55;11.23;;;7.40;;
10667;SDS011;5382;42.136;24.796;2023-07-24T00:31:22;10.15;;;7.20;;
10667;SDS011;5382;42.136;24.796;2023-07-24T00:33:50;9.45;;;6.72;;
10667;SDS011;5382;42.136;24.796;2023-07-24T00:36:17;9.35;;;6.38;;
10667;SDS011;5382;42.136;24.796;2023-07-24T00:38:43;9.07;;;7.85;;
10667;SDS011;5382;42.136;24.796;2023-07-24T00:41:10;9.02;;;7.20;;
10667;SDS011;5382;42.136;24.796;2023-07-24T00:43:37;10.13;;;7.78;;
10667;SDS011;5382;42.136;24.796;2023-07-24T00:46:04;8.77;;;6.95;;
10667;SDS011;5382;42.136;24.796;2023-07-24T00:48:31;12.57;;;7.10;;
10667;SDS011;5382;42.136;24.796;2023-07-24T00:50:59;10.45;;;7.03;;
10667;SDS011;5382;42.136;24.796;2023-07-24T00:53:26;11.90;;;7.30;;
10667;SDS011;5382;42.136;24.796;2023-07-24T00:55:53;14.93;;;6.85;;
10667;SDS011;5382;42.136;24.796;2023-07-24T00:58:20;8.48;;;6.10;;
10667;SDS011;5382;42.136;24.796;2023-07-24T01:00:48;11.43;;;6.43;;
10667;SDS011;5382;42.136;24.796;2023-07-24T01:03:16;7.05;;;5.38;;
10667;SDS011;5382;42.136;24.796;2023-07-24T01:05:43;11.65;;;6.38;;
10667;SDS011;5382;42.136;24.796;2023-07-24T01:08:11;8.32;;;6.85;;
10667;SDS011;5382;42.136;24.796;2023-07-24T01:10:39;8.23;;;6.70;;
10667;SDS011;5382;42.136;24.796;2023-07-24T01:13:07;9.50;;;7.22;;
10667;SDS011;5382;42.136;24.796;2023-07-24T01:15:38;7.32;;;6.60;;
10667;SDS011;5382;42.136;24.796;2023-07-24T01:18:11;9.77;;;6.30;;
10667;SDS011;5382;42.136;24.796;2023-07-24T01:20:42;11.73;;;6.30;;
10667;SDS011;5382;42.136;24.796;2023-07-24T01:23:21;9.13;;;6.95;;
10667;SDS011;5382;42.136;24.796;2023-07-24T01:26:00;9.77;;;7.07;;
10667;SDS011;5382;42.136;24.796;2023-07-24T01:28:29;6.95;;;5.68;;
10667;SDS011;5382;42.136;24.796;2023-07-24T01:30:56;8.98;;;6.35;;
10667;SDS011;5382;42.136;24.796;2023-07-24T01:33:23;11.15;;;6.95;;
10667;SDS011;5382;42.136;24.796;2023-07-24T01:35:53;8.90;;;7.07;;
10667;SDS011;5382;42.136;24.796;2023-07-24T01:38:21;9.05;;;6.63;;
10667;SDS011;5382;42.136;24.796;2023-07-24T01:40:50;8.18;;;6.55;;
10667;SDS011;5382;42.136;24.796;2023-07-24T01:43:19;10.50;;;8.27;;
10667;SDS011;5382;42.136;24.796;2023-07-24T01:45:47;6.95;;;5.85;;
10667;SDS011;5382;42.136;24.796;2023-07-24T01:48:13;8.85;;;7.80;;
10667;SDS011;5382;42.136;24.796;2023-07-24T01:50:40;11.60;;;7.60;;
10667;SDS011;5382;42.136;24.796;2023-07-24T01:53:07;11.80;;;6.93;;
10667;SDS011;5382;42.136;24.796;2023-07-24T01:55:34;10.95;;;7.55;;
10667;SDS011;5382;42.136;24.796;2023-07-24T01:58:01;12.40;;;7.60;;
10667;SDS011;5382;42.136;24.796;2023-07-24T02:00:29;8.90;;;7.47;;
10667;SDS011;5382;42.136;24.796;2023-07-24T02:02:56;13.30;;;7.50;;
10667;SDS011;5382;42.136;24.796;2023-07-24T02:05:23;10.73;;;7.68;;
10667;SDS011;5382;42.136;24.796;2023-07-24T02:07:50;8.85;;;7.72;;
10667;SDS011;5382;42.136;24.796;2023-07-24T02:10:17;10.73;;;8.10;;
10667;SDS011;5382;42.136;24.796;2023-07-24T02:12:43;10.90;;;8.23;;
10667;SDS011;5382;42.136;24.796;2023-07-24T02:15:10;11.90;;;9.13;;
10667;SDS011;5382;42.136;24.796;2023-07-24T02:17:39;12.32;;;8.98;;
10667;SDS011;5382;42.136;24.796;2023-07-24T02:20:07;16.42;;;10.95;;
10667;SDS011;5382;42.136;24.796;2023-07-24T02:22:34;17.02;;;11.18;;
10667;SDS011;5382;42.136;24.796;2023-07-24T02:25:01;17.92;;;11.40;;
10667;SDS011;5382;42.136;24.796;2023-07-24T02:27:29;16.00;;;13.40;;
10667;SDS011;5382;42.136;24.796;2023-07-24T02:30:00;14.63;;;13.13;;
10667;SDS011;5382;42.136;24.796;2023-07-24T02:32:27;21.27;;;16.27;;
10667;SDS011;5382;42.136;24.796;2023-07-24T02:34:59;23.58;;;17.63;;
10667;SDS011;5382;42.136;24.796;2023-07-24T02:37:35;25.88;;;19.13;;
10667;SDS011;5382;42.136;24.796;2023-07-24T02:40:03;21.73;;;18.38;;
10667;SDS011;5382;42.136;24.796;2023-07-24T02:42:31;26.80;;;18.83;;
10667;SDS011;5382;42.136;24.796;2023-07-24T02:44:59;20.85;;;18.05;;
10667;SDS011;5382;42.136;24.796;2023-07-24T02:47:26;23.33;;;18.35;;
10667;SDS011;5382;42.136;24.796;2023-07-24T02:49:53;23.83;;;17.60;;
10667;SDS011;5382;42.136;24.796;2023-07-24T02:52:22;24.55;;;17.20;;
10667;SDS011;5382;42.136;24.796;2023-07-24T02:54:49;25.55;;;17.27;;
10667;SDS011;5382;42.136;24.796;2023-07-24T02:57:15;24.75;;;17.00;;
10667;SDS011;5382;42.136;24.796;2023-07-24T02:59:42;24.70;;;17.02;;
10667;SDS011;5382;42.136;24.796;2023-07-24T03:02:09;21.35;;;16.85;;
10667;SDS011;5382;42.136;24.796;2023-07-24T03:04:36;24.88;;;17.73;;
10667;SDS011;5382;42.136;24.796;2023-07-24T03:07:03;27.50;;;17.70;;
10667;SDS011;5382;42.136;24.796;2023-07-24T03:09:31;27.27;;;17.65;;
10667;SDS011;5382;42.136;24.796;2023-07-24T03:11:58;30.58;;;18.75;;
10667;SDS011;5382;42.136;24.796;2023-07-24T03:14:25;33.97;;;19.70;;
10667;SDS011;5382;42.136;24.796;2023-07-24T03:16:52;30.00;;;18.85;;
10667;SDS011;5382;42.136;24.796;2023-07-24T03:19:18;31.42;;;19.80;;
10667;SDS011;5382;42.136;24.796;2023-07-24T03:21:46;27.60;;;18.67;;
10667;SDS011;5382;42.136;24.796;2023-07-24T03:24:13;29.65;;;18.35;;
10667;SDS011;5382;42.136;24.796;2023-07-24T03:26:41;30.33;;;18.90;;
10667;SDS011;5382;42.136;24.796;2023-07-24T03:29:08;31.33;;;19.77;;
10667;SDS011;5382;42.136;24.796;2023-07-24T03:31:35;26.10;;;18.77;;
10667;SDS011;5382;42.136;24.796;2023-07-24T03:34:02;30.55;;;19.80;;
10667;SDS011;5382;42.136;24.796;2023-07-24T03:36:29;25.23;;;18.45;;
10667;SDS011;5382;42.136;24.796;2023-07-24T03:38:55;27.55;;;18.27;;
10667;SDS011;5382;42.136;24.796;2023-07-24T03:41:22;28.65;;;19.52;;
10667;SDS011;5382;42.136;24.796;2023-07-24T03:43:50;29.45;;;18.98;;
10667;SDS011;5382;42.136;24.796;2023-07-24T03:46:17;26.63;;;19.15;;
10667;SDS011;5382;42.136;24.796;2023-07-24T03:48:44;38.78;;;19.10;;
10667;SDS011;5382;42.136;24.796;2023-07-24T03:51:11;28.80;;;18.00;;
10667;SDS011;5382;42.136;24.796;2023-07-24T03:53:37;28.80;;;18.65;;
10667;SDS011;5382;42.136;24.796;2023-07-24T03:56:04;26.48;;;19.00;;
10667;SDS011;5382;42.136;24.796;2023-07-24T03:58:31;22.13;;;18.83;;
10667;SDS011;5382;42.136;24.796;2023-07-24T04:00:59;26.40;;;20.23;;
10667;SDS011;5382;42.136;24.796;2023-07-24T04:03:26;27.38;;;20.30;;
10667;SDS011;5382;42.136;24.796;2023-07-24T04:05:53;25.92;;;20.00;;
10667;SDS011;5382;42.136;24.796;2023-07-24T04:08:20;27.65;;;20.17;;
10667;SDS011;5382;42.136;24.796;2023-07-24T04:10:47;28.77;;;19.17;;
10667;SDS011;5382;42.136;24.796;2023-07-24T04:13:13;27.83;;;18.60;;
10667;SDS011;5382;42.136;24.796;2023-07-24T04:15:40;34.97;;;18.50;;
10667;SDS011;5382;42.136;24.796;2023-07-24T04:18:08;23.73;;;17.05;;
10667;SDS011;5382;42.136;24.796;2023-07-24T04:20:35;24.52;;;15.75;;
10667;SDS011;5382;42.136;24.796;2023-07-24T04:23:02;18.85;;;13.45;;
10667;SDS011;5382;42.136;24.796;2023-07-24T04:25:29;18.33;;;13.35;;
10667;SDS011;5382;42.136;24.796;2023-07-24T04:27:56;17.10;;;12.63;;
10667;SDS011;5382;42.136;24.796;2023-07-24T04:30:23;16.88;;;12.30;;
10667;SDS011;5382;42.136;24.796;2023-07-24T04:32:49;21.38;;;12.63;;
10667;SDS011;5382;42.136;24.796;2023-07-24T04:35:18;20.73;;;13.43;;
10667;SDS011;5382;42.136;24.796;2023-07-24T04:37:44;19.58;;;13.10;;
10667;SDS011;5382;42.136;24.796;2023-07-24T04:40:11;15.27;;;13.45;;
10667;SDS011;5382;42.136;24.796;2023-07-24T04:42:38;22.00;;;13.98;;
10667;SDS011;5382;42.136;24.796;2023-07-24T04:45:06;18.48;;;12.15;;
10667;SDS011;5382;42.136;24.796;2023-07-24T04:47:33;14.35;;;12.35;;
10667;SDS011;5382;42.136;24.796;2023-07-24T04:50:02;18.35;;;12.65;;
10667;SDS011;5382;42.136;24.796;2023-07-24T04:52:30;16.23;;;13.20;;
10667;SDS011;5382;42.136;24.796;2023-07-24T04:54:57;20.98;;;14.85;;
10667;SDS011;5382;42.136;24.796;2023-07-24T04:57:24;18.77;;;14.68;;
10667;SDS011;5382;42.136;24.796;2023-07-24T04:59:50;20.70;;;15.27;;
10667;SDS011;5382;42.136;24.796;2023-07-24T05:02:17;20.27;;;17.25;;
10667;SDS011;5382;42.136;24.796;2023-07-24T05:04:44;19.10;;;13.73;;
10667;SDS011;5382;42.136;24.796;2023-07-24T05:07:11;18.92;;;16.05;;
10667;SDS011;5382;42.136;24.796;2023-07-24T05:09:39;20.60;;;16.90;;
10667;SDS011;5382;42.136;24.796;2023-07-24T05:12:06;23.55;;;18.48;;
10667;SDS011;5382;42.136;24.796;2023-07-24T05:14:33;21.13;;;17.00;;
10667;SDS011;5382;42.136;24.796;2023-07-24T05:17:00;20.88;;;16.35;;
10667;SDS011;5382;42.136;24.796;2023-07-24T05:19:27;23.08;;;16.67;;
10667;SDS011;5382;42.136;24.796;2023-07-24T05:21:53;29.65;;;18.05;;
10667;SDS011;5382;42.136;24.796;2023-07-24T05:24:20;25.23;;;17.10;;
10667;SDS011;5382;42.136;24.796;2023-07-24T05:26:48;27.05;;;19.05;;
10667;SDS011;5382;42.136;24.796;2023-07-24T05:29:15;25.90;;;20.10;;
10667;SDS011;5382;42.136;24.796;2023-07-24T05:31:42;24.45;;;17.95;;
10667;SDS011;5382;42.136;24.796;2023-07-24T05:34:09;27.23;;;20.25;;
10667;SDS011;5382;42.136;24.796;2023-07-24T05:36:36;22.05;;;18.48;;
10667;SDS011;5382;42.136;24.796;2023-07-24T05:39:03;25.55;;;20.63;;
10667;SDS011;5382;42.136;24.796;2023-07-24T05:41:29;27.35;;;20.27;;
10667;SDS011;5382;42.136;24.796;2023-07-24T05:43:57;23.38;;;19.58;;
10667;SDS011;5382;42.136;24.796;2023-07-24T05:46:24;22.50;;;18.02;;
10667;SDS011;5382;42.136;24.796;2023-07-24T05:48:51;25.55;;;18.83;;
10667;SDS011;5382;42.136;24.796;2023-07-24T05:51:18;23.58;;;18.25;;
10667;SDS011;5382;42.136;24.796;2023-07-24T05:53:45;23.88;;;18.83;;
10667;SDS011;5382;42.136;24.796;2023-07-24T05:56:11;26.67;;;17.92;;
10667;SDS011;5382;42.136;24.796;2023-07-24T05:58:38;27.85;;;19.02;;
10667;SDS011;5382;42.136;24.796;2023-07-24T06:01:06;33.80;;;18.67;;
10667;SDS011;5382;42.136;24.796;2023-07-24T06:03:35;22.17;;;18.75;;
10667;SDS011;5382;42.136;24.796;2023-07-24T06:06:04;28.13;;;19.48;;
10667;SDS011;5382;42.136;24.796;2023-07-24T06:08:30;26.13;;;19.98;;
10667;SDS011;5382;42.136;24.796;2023-07-24T06:10:57;25.17;;;18.58;;
10667;SDS011;5382;42.136;24.796;2023-07-24T06:13:24;23.88;;;18.58;;
10667;SDS011;5382;42.136;24.796;2023-07-24T06:15:51;44.47;;;18.50;;
10667;SDS011;5382;42.136;24.796;2023-07-24T06:18:20;23.48;;;17.40;;
10667;SDS011;5382;42.136;24.796;2023-07-24T06:20:47;21.45;;;17.38;;
10667;SDS011;5382;42.136;24.796;2023-07-24T06:23:15;22.92;;;18.63;;
10667;SDS011;5382;42.136;24.796;2023-07-24T06:25:42;26.75;;;18.27;;
10667;SDS011;5382;42.136;24.796;2023-07-24T06:28:09;20.00;;;17.10;;
10667;SDS011;5382;42.136;24.796;2023-07-24T06:30:36;38.70;;;17.65;;
10667;SDS011;5382;42.136;24.796;2023-07-24T06:33:05;64.13;;;21.23;;
10667;SDS011;5382;42.136;24.796;2023-07-24T06:35:33;24.83;;;17.52;;
10667;SDS011;5382;42.136;24.796;2023-07-24T06:37:59;20.25;;;16.42;;
10667;SDS011;5382;42.136;24.796;2023-07-24T06:40:26;23.17;;;17.13;;
10667;SDS011;5382;42.136;24.796;2023-07-24T06:42:53;22.48;;;17.60;;
10667;SDS011;5382;42.136;24.796;2023-07-24T06:45:20;23.45;;;17.65;;
10667;SDS011;5382;42.136;24.796;2023-07-24T06:47:47;28.50;;;17.40;;
10667;SDS011;5382;42.136;24.796;2023-07-24T06:50:14;19.38;;;16.85;;
10667;SDS011;5382;42.136;24.796;2023-07-24T06:52:42;22.13;;;17.60;;
10667;SDS011;5382;42.136;24.796;2023-07-24T06:55:09;25.38;;;18.27;;
10667;SDS011;5382;42.136;24.796;2023-07-24T06:57:38;21.63;;;18.42;;
10667;SDS011;5382;42.136;24.796;2023-07-24T07:00:05;22.73;;;17.70;;
10667;SDS011;5382;42.136;24.796;2023-07-24T07:02:36;25.10;;;17.95;;
10667;SDS011;5382;42.136;24.796;2023-07-24T07:05:03;24.38;;;18.30;;
10667;SDS011;5382;42.136;24.796;2023-07-24T07:07:31;44.60;;;19.40;;
10667;SDS011;5382;42.136;24.796;2023-07-24T07:09:59;26.92;;;17.38;;
10667;SDS011;5382;42.136;24.796;2023-07-24T07:12:26;22.15;;;17.95;;
10667;SDS011;5382;42.136;24.796;2023-07-24T07:14:53;21.95;;;17.58;;
10667;SDS011;5382;42.136;24.796;2023-07-24T07:17:20;37.08;;;17.48;;
10667;SDS011;5382;42.136;24.796;2023-07-24T07:19:47;22.03;;;18.13;;
10667;SDS011;5382;42.136;24.796;2023-07-24T07:22:14;19.23;;;16.73;;
10667;SDS011;5382;42.136;24.796;2023-07-24T07:24:41;22.45;;;17.20;;
10667;SDS011;5382;42.136;24.796;2023-07-24T07:27:10;22.50;;;16.73;;
10667;SDS011;5382;42.136;24.796;2023-07-24T07:29:36;24.70;;;16.15;;
10667;SDS011;5382;42.136;24.796;2023-07-24T07:32:03;19.98;;;15.73;;
10667;SDS011;5382;42.136;24.796;2023-07-24T07:34:31;18.85;;;16.50;;
10667;SDS011;5382;42.136;24.796;2023-07-24T07:36:59;19.35;;;16.58;;
10667;SDS011;5382;42.136;24.796;2023-07-24T07:39:26;19.73;;;16.30;;
10667;SDS011;5382;42.136;24.796;2023-07-24T07:41:53;21.60;;;16.63;;
10667;SDS011;5382;42.136;24.796;2023-07-24T07:44:21;21.35;;;16.73;;
10667;SDS011;5382;42.136;24.796;2023-07-24T07:46:48;21.45;;;16.73;;
10667;SDS011;5382;42.136;24.796;2023-07-24T07:49:15;22.20;;;16.73;;
10667;SDS011;5382;42.136;24.796;2023-07-24T07:51:42;20.25;;;16.85;;
10667;SDS011;5382;42.136;24.796;2023-07-24T07:54:08;21.70;;;16.45;;
10667;SDS011;5382;42.136;24.796;2023-07-24T07:56:35;19.05;;;15.65;;
10667;SDS011;5382;42.136;24.796;2023-07-24T07:59:02;18.90;;;15.88;;
10667;SDS011;5382;42.136;24.796;2023-07-24T08:01:31;17.85;;;15.80;;
10667;SDS011;5382;42.136;24.796;2023-07-24T08:03:57;34.30;;;15.80;;
10667;SDS011;5382;42.136;24.796;2023-07-24T08:06:24;16.33;;;14.45;;
10667;SDS011;5382;42.136;24.796;2023-07-24T08:08:51;19.85;;;15.65;;
10667;SDS011;5382;42.136;24.796;2023-07-24T08:11:18;18.08;;;16.27;;
10667;SDS011;5382;42.136;24.796;2023-07-24T08:13:45;19.98;;;15.82;;
10667;SDS011;5382;42.136;24.796;2023-07-24T08:16:12;20.50;;;15.40;;
10667;SDS011;5382;42.136;24.796;2023-07-24T08:18:44;19.23;;;16.25;;
10667;SDS011;5382;42.136;24.796;2023-07-24T08:21:12;17.40;;;15.15;;
10667;SDS011;5382;42.136;24.796;2023-07-24T08:23:39;19.27;;;15.98;;
10667;SDS011;5382;42.136;24.796;2023-07-24T08:26:06;18.75;;;16.92;;
10667;SDS011;5382;42.136;24.796;2023-07-24T08:28:34;18.50;;;14.77;;
10667;SDS011;5382;42.136;24.796;2023-07-24T08:31:00;16.58;;;14.98;;
10667;SDS011;5382;42.136;24.796;2023-07-24T08:33:27;18.52;;;15.70;;
10667;SDS011;5382;42.136;24.796;2023-07-24T08:36:00;16.65;;;14.95;;
10667;SDS011;5382;42.136;24.796;2023-07-24T08:38:27;18.38;;;15.75;;
10667;SDS011;5382;42.136;24.796;2023-07-24T08:41:01;21.48;;;14.35;;
10667;SDS011;5382;42.136;24.796;2023-07-24T08:43:31;15.38;;;13.77;;
10667;SDS011;5382;42.136;24.796;2023-07-24T08:45:59;15.68;;;12.60;;
10667;SDS011;5382;42.136;24.796;2023-07-24T08:48:27;19.75;;;13.27;;
10667;SDS011;5382;42.136;24.796;2023-07-24T08:51:00;17.42;;;13.27;;
10667;SDS011;5382;42.136;24.796;2023-07-24T08:53:28;13.13;;;11.77;;
10667;SDS011;5382;42.136;24.796;2023-07-24T08:55:55;13.38;;;11.98;;
10667;SDS011;5382;42.136;24.796;2023-07-24T08:58:23;12.57;;;11.35;;
10667;SDS011;5382;42.136;24.796;2023-07-24T09:00:50;14.70;;;12.20;;
10667;SDS011;5382;42.136;24.796;2023-07-24T09:03:17;13.55;;;12.15;;
10667;SDS011;5382;42.136;24.796;2023-07-24T09:05:44;12.18;;;10.82;;
10667;SDS011;5382;42.136;24.796;2023-07-24T09:08:13;14.90;;;12.98;;
10667;SDS011;5382;42.136;24.796;2023-07-24T09:10:39;12.15;;;10.93;;
10667;SDS011;5382;42.136;24.796;2023-07-24T09:13:07;13.25;;;11.25;;
10667;SDS011;5382;42.136;24.796;2023-07-24T09:15:40;13.80;;;11.25;;
10667;SDS011;5382;42.136;24.796;2023-07-24T09:18:07;12.27;;;10.95;;
10667;SDS011;5382;42.136;24.796;2023-07-24T09:20:38;15.40;;;11.75;;
10667;SDS011;5382;42.136;24.796;2023-07-24T09:23:07;12.90;;;11.50;;
10667;SDS011;5382;42.136;24.796;2023-07-24T09:25:35;13.45;;;11.75;;
10667;SDS011;5382;42.136;24.796;2023-07-24T09:28:08;13.63;;;12.23;;
10667;SDS011;5382;42.136;24.796;2023-07-24T09:30:36;12.27;;;11.00;;
10667;SDS011;5382;42.136;24.796;2023-07-24T09:33:03;14.10;;;11.35;;
10667;SDS011;5382;42.136;24.796;2023-07-24T09:35:30;32.08;;;13.07;;
10667;SDS011;5382;42.136;24.796;2023-07-24T09:38:04;23.35;;;11.40;;
10667;SDS011;5382;42.136;24.796;2023-07-24T09:40:40;10.88;;;9.77;;
10667;SDS011;5382;42.136;24.796;2023-07-24T09:43:17;13.95;;;12.40;;
10667;SDS011;5382;42.136;24.796;2023-07-24T09:45:45;14.25;;;11.55;;
10667;SDS011;5382;42.136;24.796;2023-07-24T09:48:14;17.02;;;12.07;;
10667;SDS011;5382;42.136;24.796;2023-07-24T09:50:45;13.30;;;11.80;;
10667;SDS011;5382;42.136;24.796;2023-07-24T09:53:15;15.73;;;11.88;;
10667;SDS011;5382;42.136;24.796;2023-07-24T09:55:49;13.80;;;12.40;;
10667;SDS011;5382;42.136;24.796;2023-07-24T09:58:21;19.60;;;12.27;;
10667;SDS011;5382;42.136;24.796;2023-07-24T10:00:51;28.48;;;13.95;;
10667;SDS011;5382;42.136;24.796;2023-07-24T10:03:18;13.68;;;11.73;;
10667;SDS011;5382;42.136;24.796;2023-07-24T10:05:45;13.95;;;12.60;;
10667;SDS011;5382;42.136;24.796;2023-07-24T10:08:13;14.55;;;13.05;;
10667;SDS011;5382;42.136;24.796;2023-07-24T10:10:40;15.00;;;12.68;;
10667;SDS011;5382;42.136;24.796;2023-07-24T10:13:09;13.82;;;12.43;;
10667;SDS011;5382;42.136;24.796;2023-07-24T10:15:39;13.23;;;11.95;;
10667;SDS011;5382;42.136;24.796;2023-07-24T10:18:07;18.55;;;13.30;;
10667;SDS011;5382;42.136;24.796;2023-07-24T10:20:35;13.98;;;12.68;;
10667;SDS011;5382;42.136;24.796;2023-07-24T10:23:03;14.65;;;12.98;;
10667;SDS011;5382;42.136;24.796;2023-07-24T10:25:31;14.32;;;12.77;;
10667;SDS011;5382;42.136;24.796;2023-07-24T10:28:02;14.82;;;12.52;;
10667;SDS011;5382;42.136;24.796;2023-07-24T10:30:34;14.82;;;12.88;;
10667;SDS011;5382;42.136;24.796;2023-07-24T10:33:05;13.77;;;12.35;;
10667;SDS011;5382;42.136;24.796;2023-07-24T10:35:37;14.20;;;12.68;;
10667;SDS011;5382;42.136;24.796;2023-07-24T10:38:04;14.10;;;11.90;;
10667;SDS011;5382;42.136;24.796;2023-07-24T10:40:32;14.25;;;12.85;;
10667;SDS011;5382;42.136;24.796;2023-07-24T10:42:59;13.73;;;12.32;;
10667;SDS011;5382;42.136;24.796;2023-07-24T10:45:38;13.25;;;11.85;;
10667;SDS011;5382;42.136;24.796;2023-07-24T10:48:12;12.88;;;11.68;;
10667;SDS011;5382;42.136;24.796;2023-07-24T10:50:39;12.95;;;11.65;;
10667;SDS011;5382;42.136;24.796;2023-07-24T10:53:07;19.17;;;12.95;;
10667;SDS011;5382;42.136;24.796;2023-07-24T10:55:35;18.02;;;11.85;;
10667;SDS011;5382;42.136;24.796;2023-07-24T10:58:01;17.00;;;12.40;;
10667;SDS011;5382;42.136;24.796;2023-07-24T11:00:28;16.00;;;12.27;;
10667;SDS011;5382;42.136;24.796;2023-07-24T11:02:58;14.00;;;12.38;;
10667;SDS011;5382;42.136;24.796;2023-07-24T11:05:25;15.13;;;12.10;;
10667;SDS011;5382;42.136;24.796;2023-07-24T11:07:52;12.68;;;11.35;;
10667;SDS011;5382;42.136;24.796;2023-07-24T11:10:20;16.70;;;10.52;;
10667;SDS011;5382;42.136;24.796;2023-07-24T11:12:47;10.98;;;9.63;;
10667;SDS011;5382;42.136;24.796;2023-07-24T11:15:15;10.63;;;9.63;;
10667;SDS011;5382;42.136;24.796;2023-07-24T11:17:42;12.55;;;10.60;;
10667;SDS011;5382;42.136;24.796;2023-07-24T11:20:11;12.80;;;11.45;;
10667;SDS011;5382;42.136;24.796;2023-07-24T11:22:40;22.05;;;11.45;;
10667;SDS011;5382;42.136;24.796;2023-07-24T11:25:08;11.60;;;10.50;;
10667;SDS011;5382;42.136;24.796;2023-07-24T11:27:39;11.38;;;10.35;;
10667;SDS011;5382;42.136;24.796;2023-07-24T11:30:09;11.82;;;9.60;;
10667;SDS011;5382;42.136;24.796;2023-07-24T11:32:37;20.35;;;10.00;;
10667;SDS011;5382;42.136;24.796;2023-07-24T11:35:06;13.45;;;9.52;;
10667;SDS011;5382;42.136;24.796;2023-07-24T11:37:35;20.95;;;10.13;;
10667;SDS011;5382;42.136;24.796;2023-07-24T11:40:03;11.07;;;10.07;;
10667;SDS011;5382;42.136;24.796;2023-07-24T11:42:36;11.48;;;10.32;;
10667;SDS011;5382;42.136;24.796;2023-07-24T11:45:04;13.10;;;10.38;;
10667;SDS011;5382;42.136;24.796;2023-07-24T11:47:44;11.52;;;9.80;;
10667;SDS011;5382;42.136;24.796;2023-07-24T11:50:12;10.60;;;9.50;;
10667;SDS011;5382;42.136;24.796;2023-07-24T11:52:42;10.57;;;9.48;;
10667;SDS011;5382;42.136;24.796;2023-07-24T11:55:10;13.25;;;10.10;;
10667;SDS011;5382;42.136;24.796;2023-07-24T11:57:37;12.80;;;9.82;;
10667;SDS011;5382;42.136;24.796;2023-07-24T12:00:04;10.25;;;9.23;;
10667;SDS011;5382;42.136;24.796;2023-07-24T12:02:35;11.98;;;9.15;;
10667;SDS011;5382;42.136;24.796;2023-07-24T12:05:04;9.60;;;8.77;;
10667;SDS011;5382;42.136;24.796;2023-07-24T12:07:32;10.75;;;9.50;;
10667;SDS011;5382;42.136;24.796;2023-07-24T12:10:01;10.80;;;9.82;;
10667;SDS011;5382;42.136;24.796;2023-07-24T12:12:38;10.05;;;9.05;;
10667;SDS011;5382;42.136;24.796;2023-07-24T12:15:07;13.13;;;9.80;;
10667;SDS011;5382;42.136;24.796;2023-07-24T12:17:35;10.98;;;9.80;;
10667;SDS011;5382;42.136;24.796;2023-07-24T12:20:02;10.75;;;9.75;;
10667;SDS011;5382;42.136;24.796;2023-07-24T12:22:29;10.95;;;9.85;;
10667;SDS011;5382;42.136;24.796;2023-07-24T12:24:56;11.35;;;10.25;;
10667;SDS011;5382;42.136;24.796;2023-07-24T12:27:24;11.07;;;10.07;;
10667;SDS011;5382;42.136;24.796;2023-07-24T12:29:51;11.25;;;10.10;;
10667;SDS011;5382;42.136;24.796;2023-07-24T12:32:18;11.23;;;10.10;;
10667;SDS011;5382;42.136;24.796;2023-07-24T12:34:46;11.13;;;9.93;;
10667;SDS011;5382;42.136;24.796;2023-07-24T12:37:13;13.13;;;9.95;;
10667;SDS011;5382;42.136;24.796;2023-07-24T12:39:40;10.45;;;9.43;;
10667;SDS011;5382;42.136;24.796;2023-07-24T12:42:07;9.88;;;8.98;;
10667;SDS011;5382;42.136;24.796;2023-07-24T12:44:35;10.40;;;9.40;;
10667;SDS011;5382;42.136;24.796;2023-07-24T12:47:02;10.57;;;9.25;;
10667;SDS011;5382;42.136;24.796;2023-07-24T12:49:30;9.80;;;8.85;;
10667;SDS011;5382;42.136;24.796;2023-07-24T12:51:57;10.50;;;9.50;;
10667;SDS011;5382;42.136;24.796;2023-07-24T12:54:24;10.60;;;9.13;;
10667;SDS011;5382;42.136;24.796;2023-07-24T12:56:51;9.55;;;8.65;;
10667;SDS011;5382;42.136;24.796;2023-07-24T12:59:19;10.00;;;9.00;;
10667;SDS011;5382;42.136;24.796;2023-07-24T13:01:48;9.50;;;8.52;;
10667;SDS011;5382;42.136;24.796;2023-07-24T13:04:15;12.45;;;9.98;;
10667;SDS011;5382;42.136;24.796;2023-07-24T13:06:42;9.90;;;8.90;;
10667;SDS011;5382;42.136;24.796;2023-07-24T13:09:09;9.90;;;8.90;;
10667;SDS011;5382;42.136;24.796;2023-07-24T13:11:36;19.88;;;9.07;;
10667;SDS011;5382;42.136;24.796;2023-07-24T13:14:03;10.63;;;8.55;;
10667;SDS011;5382;42.136;24.796;2023-07-24T13:16:30;9.13;;;8.20;;
10667;SDS011;5382;42.136;24.796;2023-07-24T13:18:58;10.68;;;8.20;;
10667;SDS011;5382;42.136;24.796;2023-07-24T13:21:25;9.20;;;8.30;;
10667;SDS011;5382;42.136;24.796;2023-07-24T13:23:52;9.40;;;8.40;;
10667;SDS011;5382;42.136;24.796;2023-07-24T13:26:21;10.40;;;8.18;;
10667;SDS011;5382;42.136;24.796;2023-07-24T13:28:47;36.90;;;11.13;;
10667;SDS011;5382;42.136;24.796;2023-07-24T13:31:15;9.70;;;8.63;;
10667;SDS011;5382;42.136;24.796;2023-07-24T13:33:43;9.10;;;7.75;;
10667;SDS011;5382;42.136;24.796;2023-07-24T13:36:11;22.35;;;9.68;;
10667;SDS011;5382;42.136;24.796;2023-07-24T13:38:38;9.25;;;8.15;;
10667;SDS011;5382;42.136;24.796;2023-07-24T13:41:06;8.85;;;7.97;;
10667;SDS011;5382;42.136;24.796;2023-07-24T13:43:33;8.63;;;7.80;;
10667;SDS011;5382;42.136;24.796;2023-07-24T13:46:00;8.95;;;8.07;;
10667;SDS011;5382;42.136;24.796;2023-07-24T13:48:28;9.63;;;8.07;;
10667;SDS011;5382;42.136;24.796;2023-07-24T13:50:56;11.23;;;8.35;;
10667;SDS011;5382;42.136;24.796;2023-07-24T13:53:24;11.23;;;8.32;;
10667;SDS011;5382;42.136;24.796;2023-07-24T13:55:51;10.20;;;7.88;;
10667;SDS011;5382;42.136;24.796;2023-07-24T13:58:18;11.13;;;8.35;;
10667;SDS011;5382;42.136;24.796;2023-07-24T14:00:44;9.43;;;8.48;;
10667;SDS011;5382;42.136;24.796;2023-07-24T14:03:11;8.88;;;7.95;;
10667;SDS011;5382;42.136;24.796;2023-07-24T14:05:38;10.10;;;8.13;;
10667;SDS011;5382;42.136;24.796;2023-07-24T14:08:06;9.85;;;8.13;;
10667;SDS011;5382;42.136;24.796;2023-07-24T14:10:35;12.40;;;9.25;;
10667;SDS011;5382;42.136;24.796;2023-07-24T14:13:02;11.25;;;9.00;;
10667;SDS011;5382;42.136;24.796;2023-07-24T14:15:29;41.58;;;11.20;;
10667;SDS011;5382;42.136;24.796;2023-07-24T14:17:56;9.63;;;8.60;;
10667;SDS011;5382;42.136;24.796;2023-07-24T14:20:23;8.38;;;7.57;;
10667;SDS011;5382;42.136;24.796;2023-07-24T14:22:49;9.80;;;8.88;;
10667;SDS011;5382;42.136;24.796;2023-07-24T14:25:16;16.85;;;8.30;;
10667;SDS011;5382;42.136;24.796;2023-07-24T14:27:44;12.85;;;8.40;;
10667;SDS011;5382;42.136;24.796;2023-07-24T14:30:11;15.95;;;9.80;;
10667;SDS011;5382;42.136;24.796;2023-07-24T14:32:38;10.15;;;9.15;;